sensor_id;sensor_type;location;lat;lon;timestamp;temperature;humidity
53498;DHT22;39382;47.168;16.008;2024-03-25T00:01:54;1.70;99.90
53498;DHT22;39382;47.168;16.008;2024-03-25T00:04:20;1.60;99.90
53498;DHT22;39382;47.168;16.008;2024-03-25T00:06:48;1.90;99.90
53498;DHT22;39382;47.168;16.008;2024-03-25T00:09:14;2.10;99.90
53498;DHT22;39382;47.168;16.008;2024-03-25T00:11:42;1.60;99.90
53498;DHT22;39382;47.168;16.008;2024-03-25T00:14:08;1.60;99.90
53498;DHT22;39382;47.168;16.008;2024-03-25T00:16:34;1.60;99.90
53498;DHT22;39382;47.168;16.008;2024-03-25T00:19:00;1.50;99.90
53498;DHT22;39382;47.168;16.008;2024-03-25T00:21:26;1.50;99.90
53498;DHT22;39382;47.168;16.008;2024-03-25T00:23:51;1.70;99.90
53498;DHT22;39382;47.168;16.008;2024-03-25T00:26:17;1.50;99.90
53498;DHT22;39382;47.168;16.008;2024-03-25T00:28:43;1.50;99.90
53498;DHT22;39382;47.168;16.008;2024-03-25T00:31:09;1.80;99.90
53498;DHT22;39382;47.168;16.008;2024-03-25T00:33:35;1.40;99.90
53498;DHT22;39382;47.168;16.008;2024-03-25T00:36:01;1.50;99.90
53498;DHT22;39382;47.168;16.008;2024-03-25T00:38:26;1.60;99.90
53498;DHT22;39382;47.168;16.008;2024-03-25T00:40:52;1.60;99.90
53498;DHT22;39382;47.168;16.008;2024-03-25T00:43:18;2.10;99.90
53498;DHT22;39382;47.168;16.008;2024-03-25T00:45:45;1.90;99.90
53498;DHT22;39382;47.168;16.008;2024-03-25T00:48:11;1.50;99.90
53498;DHT22;39382;47.168;16.008;2024-03-25T00:50:37;1.90;99.90
53498;DHT22;39382;47.168;16.008;2024-03-25T00:53:02;1.50;99.90
53498;DHT22;39382;47.168;16.008;2024-03-25T00:55:28;1.50;99.90
53498;DHT22;39382;47.168;16.008;2024-03-25T00:57:54;1.80;99.90
53498;DHT22;39382;47.168;16.008;2024-03-25T01:00:20;1.90;99.90
53498;DHT22;39382;47.168;16.008;2024-03-25T01:02:46;1.50;99.90
53498;DHT22;39382;47.168;16.008;2024-03-25T01:05:12;1.70;99.90
53498;DHT22;39382;47.168;16.008;2024-03-25T01:07:38;1.60;99.90
53498;DHT22;39382;47.168;16.008;2024-03-25T01:10:05;1.70;99.90
53498;DHT22;39382;47.168;16.008;2024-03-25T01:12:32;1.70;99.90
53498;DHT22;39382;47.168;16.008;2024-03-25T01:14:57;1.80;99.90
53498;DHT22;39382;47.168;16.008;2024-03-25T01:17:23;1.80;99.90
53498;DHT22;39382;47.168;16.008;2024-03-25T01:19:48;1.80;99.90
53498;DHT22;39382;47.168;16.008;2024-03-25T01:22:14;2.00;99.90
53498;DHT22;39382;47.168;16.008;2024-03-25T01:24:40;1.80;99.90
53498;DHT22;39382;47.168;16.008;2024-03-25T01:27:05;1.80;99.90
53498;DHT22;39382;47.168;16.008;2024-03-25T01:29:31;1.80;99.90
53498;DHT22;39382;47.168;16.008;2024-03-25T01:31:58;2.30;99.90
53498;DHT22;39382;47.168;16.008;2024-03-25T01:34:27;1.90;99.90
53498;DHT22;39382;47.168;16.008;2024-03-25T01:36:53;1.80;99.90
53498;DHT22;39382;47.168;16.008;2024-03-25T01:39:18;1.80;99.90
53498;DHT22;39382;47.168;16.008;2024-03-25T01:41:44;1.80;99.90
53498;DHT22;39382;47.168;16.008;2024-03-25T01:44:10;2.10;99.90
53498;DHT22;39382;47.168;16.008;2024-03-25T01:46:38;1.70;99.90
53498;DHT22;39382;47.168;16.008;2024-03-25T01:49:04;1.70;99.90
53498;DHT22;39382;47.168;16.008;2024-03-25T01:51:31;1.80;99.90
53498;DHT22;39382;47.168;16.008;2024-03-25T01:53:58;1.80;99.90
53498;DHT22;39382;47.168;16.008;2024-03-25T01:56:25;1.70;99.90
53498;DHT22;39382;47.168;16.008;2024-03-25T01:58:51;1.90;99.90
53498;DHT22;39382;47.168;16.008;2024-03-25T02:01:18;1.70;99.90
53498;DHT22;39382;47.168;16.008;2024-03-25T02:03:45;1.80;99.90
53498;DHT22;39382;47.168;16.008;2024-03-25T02:06:13;1.90;99.90
53498;DHT22;39382;47.168;16.008;2024-03-25T02:08:40;1.80;99.90
53498;DHT22;39382;47.168;16.008;2024-03-25T02:11:06;2.10;99.90
53498;DHT22;39382;47.168;16.008;2024-03-25T02:13:32;2.30;99.90
53498;DHT22;39382;47.168;16.008;2024-03-25T02:15:59;1.90;99.90
53498;DHT22;39382;47.168;16.008;2024-03-25T02:18:24;1.80;99.90
53498;DHT22;39382;47.168;16.008;2024-03-25T02:20:50;1.90;99.90
53498;DHT22;39382;47.168;16.008;2024-03-25T02:23:16;1.90;99.90
53498;DHT22;39382;47.168;16.008;2024-03-25T02:25:42;2.00;99.90
53498;DHT22;39382;47.168;16.008;2024-03-25T02:28:08;2.50;99.90
53498;DHT22;39382;47.168;16.008;2024-03-25T02:30:34;2.00;99.90
53498;DHT22;39382;47.168;16.008;2024-03-25T02:33:02;2.30;99.90
53498;DHT22;39382;47.168;16.008;2024-03-25T02:35:27;1.70;99.90
53498;DHT22;39382;47.168;16.008;2024-03-25T02:37:54;2.80;99.90
53498;DHT22;39382;47.168;16.008;2024-03-25T02:40:20;1.90;99.90
53498;DHT22;39382;47.168;16.008;2024-03-25T02:42:47;1.90;99.90
53498;DHT22;39382;47.168;16.008;2024-03-25T02:45:13;2.60;99.90
53498;DHT22;39382;47.168;16.008;2024-03-25T02:47:38;1.90;99.90
53498;DHT22;39382;47.168;16.008;2024-03-25T02:50:04;1.80;99.90
53498;DHT22;39382;47.168;16.008;2024-03-25T02:52:30;1.90;99.90
53498;DHT22;39382;47.168;16.008;2024-03-25T02:54:56;1.80;99.90
53498;DHT22;39382;47.168;16.008;2024-03-25T02:57:22;1.90;99.90
53498;DHT22;39382;47.168;16.008;2024-03-25T02:59:47;1.90;99.90
53498;DHT22;39382;47.168;16.008;2024-03-25T03:02:13;1.90;99.90
53498;DHT22;39382;47.168;16.008;2024-03-25T03:04:38;2.00;99.90
53498;DHT22;39382;47.168;16.008;2024-03-25T03:07:04;2.00;99.90
53498;DHT22;39382;47.168;16.008;2024-03-25T03:09:30;1.90;99.90
53498;DHT22;39382;47.168;16.008;2024-03-25T03:11:56;1.90;99.90
53498;DHT22;39382;47.168;16.008;2024-03-25T03:14:21;2.10;99.90
53498;DHT22;39382;47.168;16.008;2024-03-25T03:16:47;2.00;99.90
53498;DHT22;39382;47.168;16.008;2024-03-25T03:19:13;2.00;99.90
53498;DHT22;39382;47.168;16.008;2024-03-25T03:21:38;2.00;99.90
53498;DHT22;39382;47.168;16.008;2024-03-25T03:24:05;2.10;99.90
53498;DHT22;39382;47.168;16.008;2024-03-25T03:26:31;1.90;99.90
53498;DHT22;39382;47.168;16.008;2024-03-25T03:28:57;1.80;99.90
53498;DHT22;39382;47.168;16.008;2024-03-25T03:31:23;1.80;99.90
53498;DHT22;39382;47.168;16.008;2024-03-25T03:33:49;1.80;99.90
53498;DHT22;39382;47.168;16.008;2024-03-25T03:36:19;2.80;99.90
53498;DHT22;39382;47.168;16.008;2024-03-25T03:38:46;2.00;99.90
53498;DHT22;39382;47.168;16.008;2024-03-25T03:41:11;2.30;99.90
53498;DHT22;39382;47.168;16.008;2024-03-25T03:43:37;1.90;99.90
53498;DHT22;39382;47.168;16.008;2024-03-25T03:46:03;1.90;99.90
53498;DHT22;39382;47.168;16.008;2024-03-25T03:48:30;1.80;99.90
53498;DHT22;39382;47.168;16.008;2024-03-25T03:50:55;1.80;99.90
53498;DHT22;39382;47.168;16.008;2024-03-25T03:53:22;1.80;99.90
53498;DHT22;39382;47.168;16.008;2024-03-25T03:55:58;2.00;99.90
53498;DHT22;39382;47.168;16.008;2024-03-25T03:58:25;2.10;99.90
53498;DHT22;39382;47.168;16.008;2024-03-25T04:00:51;1.90;99.90
53498;DHT22;39382;47.168;16.008;2024-03-25T04:03:17;2.00;99.90
53498;DHT22;39382;47.168;16.008;2024-03-25T04:05:43;2.00;99.90
53498;DHT22;39382;47.168;16.008;2024-03-25T04:08:08;1.80;99.90
53498;DHT22;39382;47.168;16.008;2024-03-25T04:10:35;1.90;99.90
53498;DHT22;39382;47.168;16.008;2024-03-25T04:13:01;1.90;99.90
53498;DHT22;39382;47.168;16.008;2024-03-25T04:15:27;2.10;99.90
53498;DHT22;39382;47.168;16.008;2024-03-25T04:17:52;2.00;99.90
53498;DHT22;39382;47.168;16.008;2024-03-25T04:20:18;2.20;99.90
53498;DHT22;39382;47.168;16.008;2024-03-25T04:22:45;1.90;99.90
53498;DHT22;39382;47.168;16.008;2024-03-25T04:25:11;3.00;99.90
53498;DHT22;39382;47.168;16.008;2024-03-25T04:27:44;2.30;99.90
53498;DHT22;39382;47.168;16.008;2024-03-25T04:30:11;1.80;99.90
53498;DHT22;39382;47.168;16.008;2024-03-25T04:32:38;1.90;99.90
53498;DHT22;39382;47.168;16.008;2024-03-25T04:35:05;2.00;99.90
53498;DHT22;39382;47.168;16.008;2024-03-25T04:37:32;1.90;99.90
53498;DHT22;39382;47.168;16.008;2024-03-25T04:39:58;1.90;99.90
53498;DHT22;39382;47.168;16.008;2024-03-25T04:42:23;1.90;99.90
53498;DHT22;39382;47.168;16.008;2024-03-25T04:44:49;1.90;99.90
53498;DHT22;39382;47.168;16.008;2024-03-25T04:47:16;2.00;99.90
53498;DHT22;39382;47.168;16.008;2024-03-25T04:49:42;2.00;99.90
53498;DHT22;39382;47.168;16.008;2024-03-25T04:52:07;2.00;99.90
53498;DHT22;39382;47.168;16.008;2024-03-25T04:54:33;2.00;99.90
53498;DHT22;39382;47.168;16.008;2024-03-25T04:56:59;2.00;99.90
53498;DHT22;39382;47.168;16.008;2024-03-25T04:59:25;2.10;99.90
53498;DHT22;39382;47.168;16.008;2024-03-25T05:01:50;2.10;99.90
53498;DHT22;39382;47.168;16.008;2024-03-25T05:04:18;2.00;99.90
53498;DHT22;39382;47.168;16.008;2024-03-25T05:06:43;2.60;99.90
53498;DHT22;39382;47.168;16.008;2024-03-25T05:09:09;2.00;99.90
53498;DHT22;39382;47.168;16.008;2024-03-25T05:11:35;2.20;99.90
53498;DHT22;39382;47.168;16.008;2024-03-25T05:14:01;2.10;99.90
53498;DHT22;39382;47.168;16.008;2024-03-25T05:16:26;2.30;99.90
53498;DHT22;39382;47.168;16.008;2024-03-25T05:18:52;2.20;99.90
53498;DHT22;39382;47.168;16.008;2024-03-25T05:21:18;2.20;99.90
53498;DHT22;39382;47.168;16.008;2024-03-25T05:23:44;2.30;99.90
53498;DHT22;39382;47.168;16.008;2024-03-25T05:26:09;2.20;99.90
53498;DHT22;39382;47.168;16.008;2024-03-25T05:28:35;2.30;99.90
53498;DHT22;39382;47.168;16.008;2024-03-25T05:31:08;2.30;99.90
53498;DHT22;39382;47.168;16.008;2024-03-25T05:33:34;2.30;99.90
53498;DHT22;39382;47.168;16.008;2024-03-25T05:36:00;2.40;99.90
53498;DHT22;39382;47.168;16.008;2024-03-25T05:38:26;2.30;99.90
53498;DHT22;39382;47.168;16.008;2024-03-25T05:40:52;2.30;99.90
53498;DHT22;39382;47.168;16.008;2024-03-25T05:43:18;2.40;99.90
53498;DHT22;39382;47.168;16.008;2024-03-25T05:45:55;2.80;99.90
53498;DHT22;39382;47.168;16.008;2024-03-25T05:48:21;2.60;99.90
53498;DHT22;39382;47.168;16.008;2024-03-25T05:53:28;2.40;99.90
53498;DHT22;39382;47.168;16.008;2024-03-25T05:55:54;2.40;99.90
53498;DHT22;39382;47.168;16.008;2024-03-25T05:58:20;2.40;99.90
53498;DHT22;39382;47.168;16.008;2024-03-25T06:00:49;2.50;99.90
53498;DHT22;39382;47.168;16.008;2024-03-25T06:03:16;2.50;99.90
53498;DHT22;39382;47.168;16.008;2024-03-25T06:05:42;2.50;99.90
53498;DHT22;39382;47.168;16.008;2024-03-25T06:08:08;2.50;99.90
53498;DHT22;39382;47.168;16.008;2024-03-25T06:10:41;2.60;99.90
53498;DHT22;39382;47.168;16.008;2024-03-25T06:13:07;2.60;99.90
53498;DHT22;39382;47.168;16.008;2024-03-25T06:15:32;2.60;99.90
53498;DHT22;39382;47.168;16.008;2024-03-25T06:17:58;2.80;99.90
53498;DHT22;39382;47.168;16.008;2024-03-25T06:20:24;4.30;99.90
53498;DHT22;39382;47.168;16.008;2024-03-25T06:22:49;3.80;99.90
53498;DHT22;39382;47.168;16.008;2024-03-25T06:25:16;3.60;99.90
53498;DHT22;39382;47.168;16.008;2024-03-25T06:27:42;3.50;99.90
53498;DHT22;39382;47.168;16.008;2024-03-25T06:30:10;3.50;99.90
53498;DHT22;39382;47.168;16.008;2024-03-25T06:32:54;3.40;99.90
53498;DHT22;39382;47.168;16.008;2024-03-25T06:35:38;3.30;99.90
53498;DHT22;39382;47.168;16.008;2024-03-25T06:38:04;3.30;99.90
53498;DHT22;39382;47.168;16.008;2024-03-25T06:40:30;3.30;99.90
53498;DHT22;39382;47.168;16.008;2024-03-25T06:42:56;3.30;99.90
53498;DHT22;39382;47.168;16.008;2024-03-25T06:45:22;3.40;99.90
53498;DHT22;39382;47.168;16.008;2024-03-25T06:47:48;3.60;99.90
53498;DHT22;39382;47.168;16.008;2024-03-25T06:50:14;3.60;99.90
53498;DHT22;39382;47.168;16.008;2024-03-25T06:52:40;3.60;99.90
53498;DHT22;39382;47.168;16.008;2024-03-25T06:55:06;3.60;99.90
53498;DHT22;39382;47.168;16.008;2024-03-25T06:57:31;3.70;99.90
53498;DHT22;39382;47.168;16.008;2024-03-25T06:59:57;3.70;99.90
53498;DHT22;39382;47.168;16.008;2024-03-25T07:02:23;3.70;99.90
53498;DHT22;39382;47.168;16.008;2024-03-25T07:04:49;3.80;99.90
53498;DHT22;39382;47.168;16.008;2024-03-25T07:07:15;4.00;99.90
53498;DHT22;39382;47.168;16.008;2024-03-25T07:09:40;4.10;99.90
53498;DHT22;39382;47.168;16.008;2024-03-25T07:12:06;4.10;99.90
53498;DHT22;39382;47.168;16.008;2024-03-25T07:14:32;4.20;99.90
53498;DHT22;39382;47.168;16.008;2024-03-25T07:16:58;4.30;99.90
53498;DHT22;39382;47.168;16.008;2024-03-25T07:19:24;4.40;99.90
53498;DHT22;39382;47.168;16.008;2024-03-25T07:21:49;4.50;99.90
53498;DHT22;39382;47.168;16.008;2024-03-25T07:24:15;4.70;99.90
53498;DHT22;39382;47.168;16.008;2024-03-25T07:26:41;4.80;99.90
53498;DHT22;39382;47.168;16.008;2024-03-25T07:29:06;5.00;99.90
53498;DHT22;39382;47.168;16.008;2024-03-25T07:31:32;6.50;99.90
53498;DHT22;39382;47.168;16.008;2024-03-25T07:33:58;6.40;99.90
53498;DHT22;39382;47.168;16.008;2024-03-25T07:36:24;6.30;99.90
53498;DHT22;39382;47.168;16.008;2024-03-25T07:38:49;6.30;99.90
53498;DHT22;39382;47.168;16.008;2024-03-25T07:41:15;6.20;99.90
53498;DHT22;39382;47.168;16.008;2024-03-25T07:43:41;6.30;99.90
53498;DHT22;39382;47.168;16.008;2024-03-25T07:46:06;6.30;99.90
53498;DHT22;39382;47.168;16.008;2024-03-25T07:48:32;6.40;99.90
53498;DHT22;39382;47.168;16.008;2024-03-25T07:50:58;6.40;99.90
53498;DHT22;39382;47.168;16.008;2024-03-25T07:53:23;6.70;99.90
53498;DHT22;39382;47.168;16.008;2024-03-25T07:55:49;7.10;99.40
53498;DHT22;39382;47.168;16.008;2024-03-25T07:58:16;7.60;91.30
53498;DHT22;39382;47.168;16.008;2024-03-25T08:00:42;8.90;99.90
53498;DHT22;39382;47.168;16.008;2024-03-25T08:03:08;9.10;80.90
53498;DHT22;39382;47.168;16.008;2024-03-25T08:05:33;9.80;84.80
53498;DHT22;39382;47.168;16.008;2024-03-25T08:07:59;9.90;73.20
53498;DHT22;39382;47.168;16.008;2024-03-25T08:10:25;9.70;71.30
53498;DHT22;39382;47.168;16.008;2024-03-25T08:12:50;9.50;68.20
53498;DHT22;39382;47.168;16.008;2024-03-25T08:15:16;9.50;67.10
53498;DHT22;39382;47.168;16.008;2024-03-25T08:17:42;9.30;69.60
53498;DHT22;39382;47.168;16.008;2024-03-25T08:20:08;9.30;74.20
53498;DHT22;39382;47.168;16.008;2024-03-25T08:22:34;9.30;70.70
53498;DHT22;39382;47.168;16.008;2024-03-25T08:24:59;9.30;72.40
53498;DHT22;39382;47.168;16.008;2024-03-25T08:27:25;9.50;71.20
53498;DHT22;39382;47.168;16.008;2024-03-25T08:29:51;9.60;71.20
53498;DHT22;39382;47.168;16.008;2024-03-25T08:32:19;9.60;68.20
53498;DHT22;39382;47.168;16.008;2024-03-25T08:34:44;9.60;68.70
53498;DHT22;39382;47.168;16.008;2024-03-25T08:37:11;9.60;71.90
53498;DHT22;39382;47.168;16.008;2024-03-25T08:39:36;9.90;71.10
53498;DHT22;39382;47.168;16.008;2024-03-25T08:42:02;9.80;69.20
53498;DHT22;39382;47.168;16.008;2024-03-25T08:44:28;10.00;67.00
53498;DHT22;39382;47.168;16.008;2024-03-25T08:46:54;10.00;66.50
53498;DHT22;39382;47.168;16.008;2024-03-25T08:49:19;10.00;64.90
53498;DHT22;39382;47.168;16.008;2024-03-25T08:51:45;10.00;59.50
53498;DHT22;39382;47.168;16.008;2024-03-25T08:54:11;9.90;56.60
53498;DHT22;39382;47.168;16.008;2024-03-25T08:56:36;9.90;60.50
53498;DHT22;39382;47.168;16.008;2024-03-25T08:59:02;9.90;60.50
53498;DHT22;39382;47.168;16.008;2024-03-25T09:01:28;9.90;57.20
53498;DHT22;39382;47.168;16.008;2024-03-25T09:03:56;9.80;59.80
53498;DHT22;39382;47.168;16.008;2024-03-25T09:06:21;9.80;60.70
53498;DHT22;39382;47.168;16.008;2024-03-25T09:08:47;9.90;61.60
53498;DHT22;39382;47.168;16.008;2024-03-25T09:11:31;10.00;61.30
53498;DHT22;39382;47.168;16.008;2024-03-25T09:13:57;10.10;59.30
53498;DHT22;39382;47.168;16.008;2024-03-25T09:16:23;10.10;60.10
53498;DHT22;39382;47.168;16.008;2024-03-25T09:18:49;10.20;58.80
53498;DHT22;39382;47.168;16.008;2024-03-25T09:21:14;10.30;58.90
53498;DHT22;39382;47.168;16.008;2024-03-25T09:23:40;10.40;59.90
53498;DHT22;39382;47.168;16.008;2024-03-25T09:26:05;10.50;58.40
53498;DHT22;39382;47.168;16.008;2024-03-25T09:28:31;10.50;55.50
53498;DHT22;39382;47.168;16.008;2024-03-25T09:30:57;10.70;73.00
53498;DHT22;39382;47.168;16.008;2024-03-25T09:33:22;10.80;56.40
53498;DHT22;39382;47.168;16.008;2024-03-25T09:35:49;10.60;57.20
53498;DHT22;39382;47.168;16.008;2024-03-25T09:38:15;10.40;55.20
53498;DHT22;39382;47.168;16.008;2024-03-25T09:40:41;10.60;59.30
53498;DHT22;39382;47.168;16.008;2024-03-25T09:43:13;10.70;56.90
53498;DHT22;39382;47.168;16.008;2024-03-25T09:45:44;10.70;56.80
53498;DHT22;39382;47.168;16.008;2024-03-25T09:48:15;10.80;57.70
53498;DHT22;39382;47.168;16.008;2024-03-25T09:50:43;10.90;57.70
53498;DHT22;39382;47.168;16.008;2024-03-25T09:53:09;10.80;55.70
53498;DHT22;39382;47.168;16.008;2024-03-25T09:55:35;10.80;56.30
53498;DHT22;39382;47.168;16.008;2024-03-25T09:58:02;10.70;54.10
53498;DHT22;39382;47.168;16.008;2024-03-25T10:00:28;10.80;58.00
53498;DHT22;39382;47.168;16.008;2024-03-25T10:02:54;10.80;57.80
53498;DHT22;39382;47.168;16.008;2024-03-25T10:05:20;10.90;59.10
53498;DHT22;39382;47.168;16.008;2024-03-25T10:07:46;10.90;58.30
53498;DHT22;39382;47.168;16.008;2024-03-25T10:10:11;11.00;56.10
53498;DHT22;39382;47.168;16.008;2024-03-25T10:12:37;11.10;58.10
53498;DHT22;39382;47.168;16.008;2024-03-25T10:15:03;11.20;54.20
53498;DHT22;39382;47.168;16.008;2024-03-25T10:17:32;11.20;54.50
53498;DHT22;39382;47.168;16.008;2024-03-25T10:19:59;11.10;53.90
53498;DHT22;39382;47.168;16.008;2024-03-25T10:22:24;11.10;52.50
53498;DHT22;39382;47.168;16.008;2024-03-25T10:24:50;11.10;55.10
53498;DHT22;39382;47.168;16.008;2024-03-25T10:27:23;11.10;55.00
53498;DHT22;39382;47.168;16.008;2024-03-25T10:29:55;11.10;55.80
53498;DHT22;39382;47.168;16.008;2024-03-25T10:32:21;11.10;53.00
53498;DHT22;39382;47.168;16.008;2024-03-25T10:34:50;11.10;51.10
53498;DHT22;39382;47.168;16.008;2024-03-25T10:37:16;11.20;51.20
53498;DHT22;39382;47.168;16.008;2024-03-25T10:39:50;11.30;52.50
53498;DHT22;39382;47.168;16.008;2024-03-25T10:42:20;11.70;51.80
53498;DHT22;39382;47.168;16.008;2024-03-25T10:44:47;11.70;51.70
53498;DHT22;39382;47.168;16.008;2024-03-25T10:47:19;11.80;49.60
53498;DHT22;39382;47.168;16.008;2024-03-25T10:49:58;11.90;50.60
53498;DHT22;39382;47.168;16.008;2024-03-25T10:52:26;11.90;48.70
53498;DHT22;39382;47.168;16.008;2024-03-25T10:54:52;11.70;51.00
53498;DHT22;39382;47.168;16.008;2024-03-25T10:57:20;11.60;48.30
53498;DHT22;39382;47.168;16.008;2024-03-25T10:59:46;11.50;48.50
53498;DHT22;39382;47.168;16.008;2024-03-25T11:02:13;11.70;49.40
53498;DHT22;39382;47.168;16.008;2024-03-25T11:04:39;11.80;50.80
53498;DHT22;39382;47.168;16.008;2024-03-25T11:07:14;12.10;50.60
53498;DHT22;39382;47.168;16.008;2024-03-25T11:09:41;12.20;47.00
53498;DHT22;39382;47.168;16.008;2024-03-25T11:12:10;12.40;49.10
53498;DHT22;39382;47.168;16.008;2024-03-25T11:14:36;12.40;47.90
53498;DHT22;39382;47.168;16.008;2024-03-25T11:17:02;12.50;47.10
53498;DHT22;39382;47.168;16.008;2024-03-25T11:19:29;12.10;44.40
53498;DHT22;39382;47.168;16.008;2024-03-25T11:22:09;12.20;47.80
53498;DHT22;39382;47.168;16.008;2024-03-25T11:24:36;12.00;45.30
53498;DHT22;39382;47.168;16.008;2024-03-25T11:27:08;11.90;44.00
53498;DHT22;39382;47.168;16.008;2024-03-25T11:29:34;11.90;48.80
53498;DHT22;39382;47.168;16.008;2024-03-25T11:32:03;12.00;49.20
53498;DHT22;39382;47.168;16.008;2024-03-25T11:34:29;12.20;48.50
53498;DHT22;39382;47.168;16.008;2024-03-25T11:36:55;12.10;47.60
53498;DHT22;39382;47.168;16.008;2024-03-25T11:39:23;12.00;46.30
53498;DHT22;39382;47.168;16.008;2024-03-25T11:41:49;12.00;48.60
53498;DHT22;39382;47.168;16.008;2024-03-25T11:44:16;11.90;46.60
53498;DHT22;39382;47.168;16.008;2024-03-25T11:46:43;11.90;46.10
53498;DHT22;39382;47.168;16.008;2024-03-25T11:49:13;11.90;46.10
53498;DHT22;39382;47.168;16.008;2024-03-25T11:51:40;12.20;46.40
53498;DHT22;39382;47.168;16.008;2024-03-25T11:54:13;12.40;43.20
53498;DHT22;39382;47.168;16.008;2024-03-25T11:56:39;12.40;40.70
53498;DHT22;39382;47.168;16.008;2024-03-25T11:59:04;12.10;41.90
53498;DHT22;39382;47.168;16.008;2024-03-25T12:01:33;12.20;43.00
53498;DHT22;39382;47.168;16.008;2024-03-25T12:04:12;12.20;44.30
53498;DHT22;39382;47.168;16.008;2024-03-25T12:06:37;12.20;43.70
53498;DHT22;39382;47.168;16.008;2024-03-25T12:09:03;12.20;44.70
53498;DHT22;39382;47.168;16.008;2024-03-25T12:11:47;12.10;44.40
53498;DHT22;39382;47.168;16.008;2024-03-25T12:14:13;12.00;43.30
53498;DHT22;39382;47.168;16.008;2024-03-25T12:16:40;12.00;44.40
53498;DHT22;39382;47.168;16.008;2024-03-25T12:19:06;11.90;44.30
53498;DHT22;39382;47.168;16.008;2024-03-25T12:21:31;11.90;44.40
53498;DHT22;39382;47.168;16.008;2024-03-25T12:23:57;11.80;43.60
53498;DHT22;39382;47.168;16.008;2024-03-25T12:26:24;12.00;43.60
53498;DHT22;39382;47.168;16.008;2024-03-25T12:28:49;12.30;46.20
53498;DHT22;39382;47.168;16.008;2024-03-25T12:31:15;12.50;43.90
53498;DHT22;39382;47.168;16.008;2024-03-25T12:33:42;12.60;43.60
53498;DHT22;39382;47.168;16.008;2024-03-25T12:36:09;12.90;46.00
53498;DHT22;39382;47.168;16.008;2024-03-25T12:38:36;13.20;44.80
53498;DHT22;39382;47.168;16.008;2024-03-25T12:41:09;13.50;42.70
53498;DHT22;39382;47.168;16.008;2024-03-25T12:43:36;13.80;40.20
53498;DHT22;39382;47.168;16.008;2024-03-25T12:46:02;13.50;39.40
53498;DHT22;39382;47.168;16.008;2024-03-25T12:48:31;13.40;38.90
53498;DHT22;39382;47.168;16.008;2024-03-25T12:50:57;13.50;38.00
53498;DHT22;39382;47.168;16.008;2024-03-25T12:53:22;13.60;40.50
53498;DHT22;39382;47.168;16.008;2024-03-25T12:55:48;13.60;39.90
53498;DHT22;39382;47.168;16.008;2024-03-25T12:58:14;13.90;71.70
53498;DHT22;39382;47.168;16.008;2024-03-25T13:00:40;13.80;51.40
53498;DHT22;39382;47.168;16.008;2024-03-25T13:03:06;13.60;37.30
53498;DHT22;39382;47.168;16.008;2024-03-25T13:05:34;13.50;36.10
53498;DHT22;39382;47.168;16.008;2024-03-25T13:08:00;13.50;37.40
53498;DHT22;39382;47.168;16.008;2024-03-25T13:10:27;13.60;36.60
53498;DHT22;39382;47.168;16.008;2024-03-25T13:12:52;13.60;36.60
53498;DHT22;39382;47.168;16.008;2024-03-25T13:15:18;13.50;36.50
53498;DHT22;39382;47.168;16.008;2024-03-25T13:17:44;13.30;38.10
53498;DHT22;39382;47.168;16.008;2024-03-25T13:20:10;13.30;38.30
53498;DHT22;39382;47.168;16.008;2024-03-25T13:22:35;13.20;36.60
53498;DHT22;39382;47.168;16.008;2024-03-25T13:25:01;13.20;36.00
53498;DHT22;39382;47.168;16.008;2024-03-25T13:27:27;13.20;36.40
53498;DHT22;39382;47.168;16.008;2024-03-25T13:29:52;13.00;38.50
53498;DHT22;39382;47.168;16.008;2024-03-25T13:32:19;12.90;41.00
53498;DHT22;39382;47.168;16.008;2024-03-25T13:34:45;12.80;39.20
53498;DHT22;39382;47.168;16.008;2024-03-25T13:37:11;12.80;38.50
53498;DHT22;39382;47.168;16.008;2024-03-25T13:39:37;12.70;38.20
53498;DHT22;39382;47.168;16.008;2024-03-25T13:42:03;12.80;37.90
53498;DHT22;39382;47.168;16.008;2024-03-25T13:44:29;12.60;38.00
53498;DHT22;39382;47.168;16.008;2024-03-25T13:46:55;12.70;38.30
53498;DHT22;39382;47.168;16.008;2024-03-25T13:49:20;12.90;36.60
53498;DHT22;39382;47.168;16.008;2024-03-25T13:51:48;12.90;35.10
53498;DHT22;39382;47.168;16.008;2024-03-25T13:54:14;13.00;34.50
53498;DHT22;39382;47.168;16.008;2024-03-25T13:56:39;13.10;35.00
53498;DHT22;39382;47.168;16.008;2024-03-25T13:59:07;13.20;36.00
53498;DHT22;39382;47.168;16.008;2024-03-25T14:01:33;13.30;35.30
53498;DHT22;39382;47.168;16.008;2024-03-25T14:03:58;13.30;35.00
53498;DHT22;39382;47.168;16.008;2024-03-25T14:06:26;13.50;34.80
53498;DHT22;39382;47.168;16.008;2024-03-25T14:08:52;13.50;36.30
53498;DHT22;39382;47.168;16.008;2024-03-25T14:11:17;13.40;35.30
53498;DHT22;39382;47.168;16.008;2024-03-25T14:13:44;13.80;58.40
53498;DHT22;39382;47.168;16.008;2024-03-25T14:16:09;13.90;39.50
53498;DHT22;39382;47.168;16.008;2024-03-25T14:18:35;14.00;44.40
53498;DHT22;39382;47.168;16.008;2024-03-25T14:21:00;14.00;42.90
53498;DHT22;39382;47.168;16.008;2024-03-25T14:23:26;14.00;47.50
53498;DHT22;39382;47.168;16.008;2024-03-25T14:25:52;14.10;39.60
53498;DHT22;39382;47.168;16.008;2024-03-25T14:28:17;14.30;38.70
53498;DHT22;39382;47.168;16.008;2024-03-25T14:30:43;14.30;38.90
53498;DHT22;39382;47.168;16.008;2024-03-25T14:33:08;14.40;34.50
53498;DHT22;39382;47.168;16.008;2024-03-25T14:35:34;14.20;35.20
53498;DHT22;39382;47.168;16.008;2024-03-25T14:38:00;14.10;40.40
53498;DHT22;39382;47.168;16.008;2024-03-25T14:40:26;14.10;38.50
53498;DHT22;39382;47.168;16.008;2024-03-25T14:42:52;13.90;34.90
53498;DHT22;39382;47.168;16.008;2024-03-25T14:45:18;13.80;40.80
53498;DHT22;39382;47.168;16.008;2024-03-25T14:47:43;13.70;37.10
53498;DHT22;39382;47.168;16.008;2024-03-25T14:50:09;13.50;39.00
53498;DHT22;39382;47.168;16.008;2024-03-25T14:52:35;13.50;40.10
53498;DHT22;39382;47.168;16.008;2024-03-25T14:55:01;13.60;41.10
53498;DHT22;39382;47.168;16.008;2024-03-25T14:57:27;13.50;43.60
53498;DHT22;39382;47.168;16.008;2024-03-25T14:59:53;13.60;43.90
53498;DHT22;39382;47.168;16.008;2024-03-25T15:02:19;13.50;44.50
53498;DHT22;39382;47.168;16.008;2024-03-25T15:04:44;13.50;42.90
53498;DHT22;39382;47.168;16.008;2024-03-25T15:07:11;13.40;39.80
53498;DHT22;39382;47.168;16.008;2024-03-25T15:09:36;13.30;40.70
53498;DHT22;39382;47.168;16.008;2024-03-25T15:12:03;13.30;39.70
53498;DHT22;39382;47.168;16.008;2024-03-25T15:14:29;13.40;38.60
53498;DHT22;39382;47.168;16.008;2024-03-25T15:16:56;13.50;39.90
53498;DHT22;39382;47.168;16.008;2024-03-25T15:19:24;13.50;38.60
53498;DHT22;39382;47.168;16.008;2024-03-25T15:21:49;13.40;40.00
53498;DHT22;39382;47.168;16.008;2024-03-25T15:24:15;13.30;40.30